createdAt,value
2023-03-29T00:00:08.920Z,12.7
2023-03-29T00:01:10.775Z,12.7
2023-03-29T00:02:38.336Z,12.7
2023-03-29T00:03:40.853Z,12.7
2023-03-29T00:04:43.078Z,12.7
2023-03-29T00:05:45.223Z,12.7
2023-03-29T00:06:47.050Z,12.7
2023-03-29T00:07:48.897Z,12.7
2023-03-29T00:08:50.743Z,12.7
2023-03-29T00:09:52.723Z,12.7
2023-03-29T00:10:54.654Z,12.7
2023-03-29T00:11:56.495Z,12.7
2023-03-29T00:12:58.351Z,12.7
2023-03-29T00:14:00.408Z,12.7
2023-03-29T00:15:02.356Z,12.7
2023-03-29T00:16:04.214Z,12.7
2023-03-29T00:17:06.317Z,12.7
2023-03-29T00:18:08.873Z,12.7
2023-03-29T00:19:10.783Z,12.7
2023-03-29T00:20:12.755Z,12.7
2023-03-29T00:21:14.480Z,12.7
2023-03-29T00:22:16.335Z,12.7
2023-03-29T00:23:18.187Z,12.7
2023-03-29T00:24:20.033Z,12.7
2023-03-29T00:25:22.114Z,12.7
2023-03-29T00:26:24.339Z,12.6
2023-03-29T00:27:26.199Z,12.7
2023-03-29T00:28:27.947Z,12.7
2023-03-29T00:29:29.798Z,12.7
2023-03-29T00:30:31.649Z,12.6
2023-03-29T00:31:33.624Z,12.7
2023-03-29T00:32:35.699Z,12.7
2023-03-29T00:33:37.719Z,12.7
2023-03-29T00:34:39.561Z,12.7
2023-03-29T00:35:41.426Z,12.6
2023-03-29T00:36:43.366Z,12.7
2023-03-29T00:37:45.108Z,12.7
2023-03-29T00:38:46.957Z,12.7
2023-03-29T00:39:48.816Z,12.7
2023-03-29T00:40:50.891Z,12.6
2023-03-29T00:41:52.807Z,12.7
2023-03-29T00:42:54.866Z,12.7
2023-03-29T00:43:56.815Z,12.7
2023-03-29T00:44:58.683Z,12.7
2023-03-29T00:46:00.651Z,12.7
2023-03-29T00:47:02.576Z,12.7
2023-03-29T00:48:04.567Z,12.6
2023-03-29T00:49:06.589Z,12.6
2023-03-29T00:50:08.445Z,12.6
2023-03-29T00:51:10.400Z,12.6
2023-03-29T00:52:12.236Z,12.6
2023-03-29T00:53:14.093Z,12.7
2023-03-29T00:54:16.040Z,12.6
2023-03-29T00:55:17.869Z,12.6
2023-03-29T00:56:19.858Z,12.6
2023-03-29T00:57:21.854Z,12.6
2023-03-29T00:58:24.062Z,12.6
2023-03-29T00:59:25.895Z,12.6
2023-03-29T01:00:27.738Z,12.6
2023-03-29T01:01:29.715Z,12.5
2023-03-29T01:02:31.743Z,12.6
2023-03-29T01:03:33.951Z,12.5
2023-03-29T01:04:36.355Z,12.6
2023-03-29T01:05:38.148Z,12.6
2023-03-29T01:06:39.976Z,12.6
2023-03-29T01:07:41.774Z,12.6
2023-03-29T01:08:43.584Z,12.6
2023-03-29T01:09:45.527Z,12.6
2023-03-29T01:10:47.390Z,12.6
2023-03-29T01:11:49.207Z,12.6
2023-03-29T01:12:51.180Z,12.5
2023-03-29T01:13:53.137Z,12.6
2023-03-29T01:14:54.979Z,12.6
2023-03-29T01:15:56.966Z,12.5
2023-03-29T01:16:58.995Z,12.5
2023-03-29T01:18:01.000Z,12.5
2023-03-29T01:19:03.124Z,12.5
2023-03-29T01:20:04.946Z,12.5
2023-03-29T01:21:06.902Z,12.5
2023-03-29T01:22:08.757Z,12.6
2023-03-29T01:23:10.714Z,12.5
2023-03-29T01:24:12.561Z,12.5
2023-03-29T01:25:14.514Z,12.5
2023-03-29T01:26:16.360Z,12.6
2023-03-29T01:27:18.341Z,12.5
2023-03-29T01:28:20.161Z,12.5
2023-03-29T01:29:22.009Z,12.6
2023-03-29T01:30:23.969Z,12.5
2023-03-29T01:31:25.939Z,12.5
2023-03-29T01:32:27.938Z,12.5
2023-03-29T01:33:29.988Z,12.5
2023-03-29T01:34:32.091Z,12.5
2023-03-29T01:35:34.064Z,12.5
2023-03-29T01:36:35.889Z,12.5
2023-03-29T01:37:37.831Z,12.5
2023-03-29T01:38:39.595Z,12.5
2023-03-29T01:39:41.440Z,12.5
2023-03-29T01:40:43.279Z,12.5
2023-03-29T01:41:45.241Z,12.5
2023-03-29T01:42:47.114Z,12.5
2023-03-29T01:43:48.949Z,12.5
2023-03-29T01:44:50.781Z,12.4
2023-03-29T01:45:52.660Z,12.5
2023-03-29T01:46:54.892Z,12.4
2023-03-29T01:47:56.753Z,12.4
2023-03-29T01:48:58.762Z,12.5
2023-03-29T01:50:00.654Z,12.5
2023-03-29T01:51:03.064Z,12.5
2023-03-29T01:52:05.888Z,12.4
2023-03-29T01:53:07.846Z,12.4
2023-03-29T01:54:09.891Z,12.4
2023-03-29T01:55:11.944Z,12.4
2023-03-29T01:56:14.100Z,12.4
2023-03-29T01:57:16.006Z,12.4
2023-03-29T01:58:18.047Z,12.4
2023-03-29T01:59:19.869Z,12.4
2023-03-29T02:00:21.709Z,12.4
2023-03-29T02:01:23.681Z,12.5
2023-03-29T02:02:25.642Z,12.4
2023-03-29T02:03:28.065Z,12.4
2023-03-29T02:04:30.242Z,12.4
2023-03-29T02:05:32.086Z,12.4
2023-03-29T02:06:34.079Z,12.4
2023-03-29T02:07:35.885Z,12.4
2023-03-29T02:08:37.688Z,12.4
2023-03-29T02:09:39.493Z,12.4
2023-03-29T02:10:41.435Z,12.4
2023-03-29T02:11:43.299Z,12.4
2023-03-29T02:12:45.132Z,12.4
2023-03-29T02:13:46.908Z,12.4
2023-03-29T02:14:48.747Z,12.4
2023-03-29T02:15:50.729Z,12.4
2023-03-29T02:16:52.849Z,12.4
2023-03-29T02:17:54.849Z,12.3
2023-03-29T02:18:56.858Z,12.4
2023-03-29T02:19:58.708Z,12.4
2023-03-29T02:21:01.174Z,12.3
2023-03-29T02:22:03.842Z,12.4
2023-03-29T02:23:05.695Z,12.4
2023-03-29T02:24:07.561Z,12.4
2023-03-29T02:25:09.589Z,12.4
2023-03-29T02:26:11.537Z,12.3
2023-03-29T02:27:13.499Z,12.3
2023-03-29T02:28:15.356Z,12.4
2023-03-29T02:29:17.269Z,12.3
2023-03-29T02:30:19.151Z,12.4
2023-03-29T02:31:21.027Z,12.4
2023-03-29T02:32:23.022Z,12.3
2023-03-29T02:33:24.796Z,12.4
2023-03-29T02:34:26.554Z,12.4
2023-03-29T02:35:28.500Z,12.4
2023-03-29T02:36:30.353Z,12.3
2023-03-29T02:37:32.299Z,12.4
2023-03-29T02:38:34.145Z,12.3
2023-03-29T02:39:36.203Z,12.2
2023-03-29T02:40:38.070Z,12.3
2023-03-29T02:41:40.013Z,12.3
2023-03-29T02:42:41.860Z,12.3
2023-03-29T02:43:43.677Z,12.3
2023-03-29T02:44:45.587Z,12.3
2023-03-29T02:45:47.506Z,12.3
2023-03-29T02:46:49.491Z,12.3
2023-03-29T02:47:51.723Z,12.3
2023-03-29T02:48:53.673Z,12.3
2023-03-29T02:49:55.533Z,12.3
2023-03-29T02:50:57.671Z,12.3
2023-03-29T02:51:59.854Z,12.3
2023-03-29T02:53:01.798Z,12.3
2023-03-29T02:54:03.651Z,12.3
2023-03-29T02:55:05.412Z,12.3
2023-03-29T02:56:07.260Z,12.3
2023-03-29T02:57:09.214Z,12.3
2023-03-29T02:58:11.151Z,12.4
2023-03-29T02:59:14.571Z,12.4
2023-03-29T03:00:16.622Z,12
2023-03-29T03:01:18.536Z,12.3
2023-03-29T03:02:20.651Z,12.4
2023-03-29T03:03:22.842Z,12.4
2023-03-29T03:04:25.224Z,12.3
2023-03-29T03:05:26.981Z,12.3
2023-03-29T03:06:28.720Z,12.3
2023-03-29T03:07:30.571Z,12.4
2023-03-29T03:08:32.526Z,12.3
2023-03-29T03:09:34.487Z,12.3
2023-03-29T03:10:36.420Z,12.4
2023-03-29T03:11:38.280Z,12.4
2023-03-29T03:12:40.125Z,12.5
2023-03-29T03:13:42.081Z,12.5
2023-03-29T03:14:43.929Z,12.5
2023-03-29T03:15:45.860Z,12.4
2023-03-29T03:16:47.859Z,12.5
2023-03-29T03:17:50.211Z,12.5
2023-03-29T03:18:52.221Z,12.5
2023-03-29T03:19:54.103Z,12.5
2023-03-29T03:20:55.951Z,12.5
2023-03-29T03:21:57.787Z,12.5
2023-03-29T03:22:59.647Z,12.6
2023-03-29T03:24:01.392Z,12.6
2023-03-29T03:25:03.248Z,12.7
2023-03-29T03:26:05.090Z,12.6
2023-03-29T03:27:06.837Z,12.6
2023-03-29T03:28:08.795Z,12.6
2023-03-29T03:29:10.640Z,12.7
2023-03-29T03:30:12.486Z,12.7
2023-03-29T03:31:14.546Z,12.6
2023-03-29T03:32:16.710Z,12.7
2023-03-29T03:33:18.554Z,12.7
2023-03-29T03:34:20.408Z,12.8
2023-03-29T03:35:22.147Z,12.7
2023-03-29T03:36:24.000Z,12.7
2023-03-29T03:37:25.852Z,12.7
2023-03-29T03:38:27.693Z,12.7
2023-03-29T03:39:29.656Z,12.7
2023-03-29T03:40:31.460Z,12.7
2023-03-29T03:41:33.248Z,12.7
2023-03-29T03:42:34.990Z,12.8
2023-03-29T03:43:36.849Z,12.8
2023-03-29T03:44:38.694Z,12.8
2023-03-29T03:45:40.573Z,12.8
2023-03-29T03:46:42.419Z,12.8
2023-03-29T03:47:44.599Z,12.8
2023-03-29T03:48:46.600Z,12.8
2023-03-29T03:49:48.362Z,12.8
2023-03-29T03:50:50.209Z,12.8
2023-03-29T03:51:52.995Z,12.8
2023-03-29T03:52:54.829Z,12.8
2023-03-29T03:53:56.779Z,12.8
2023-03-29T03:54:58.628Z,12.8
2023-03-29T03:56:00.587Z,12.8
2023-03-29T03:57:02.638Z,12.9
2023-03-29T03:58:04.486Z,13
2023-03-29T03:59:06.438Z,13
2023-03-29T04:00:08.276Z,13
2023-03-29T04:01:10.243Z,13.1
2023-03-29T04:02:12.043Z,13.1
2023-03-29T04:03:14.380Z,13.1
2023-03-29T04:04:16.784Z,13
2023-03-29T04:05:18.873Z,13
2023-03-29T04:06:20.925Z,13.1
2023-03-29T04:07:22.780Z,13
2023-03-29T04:08:24.625Z,13
2023-03-29T04:09:26.466Z,13
2023-03-29T04:10:28.327Z,12.9
2023-03-29T04:11:30.059Z,12.8
2023-03-29T04:12:32.028Z,12.8
2023-03-29T04:13:33.869Z,12.8
2023-03-29T04:14:35.716Z,12.8
2023-03-29T04:15:37.593Z,12.9
2023-03-29T04:16:39.519Z,12.9
2023-03-29T04:17:41.705Z,12.9
2023-03-29T04:18:44.329Z,12.9
2023-03-29T04:19:46.713Z,12.9
2023-03-29T04:20:48.557Z,12.9
2023-03-29T04:21:50.413Z,13
2023-03-29T04:22:52.357Z,13
2023-03-29T04:23:54.207Z,13.1
2023-03-29T04:24:56.167Z,13
2023-03-29T04:25:58.021Z,13
2023-03-29T04:26:59.984Z,13
2023-03-29T04:28:01.825Z,13
2023-03-29T04:29:03.686Z,12.9
2023-03-29T04:30:05.520Z,13
2023-03-29T04:31:07.479Z,12.9
2023-03-29T04:32:09.395Z,13
2023-03-29T04:33:11.484Z,13
2023-03-29T04:34:13.543Z,13.1
2023-03-29T04:35:15.392Z,13.1
2023-03-29T04:36:17.395Z,13
2023-03-29T04:37:19.425Z,13
2023-03-29T04:38:21.260Z,13
2023-03-29T04:39:22.995Z,13
2023-03-29T04:40:24.846Z,13
2023-03-29T04:41:26.878Z,12.9
2023-03-29T04:42:28.760Z,12.9
2023-03-29T04:43:30.709Z,12.9
2023-03-29T04:44:32.552Z,12.9
2023-03-29T04:45:34.495Z,12.8
2023-03-29T04:46:36.477Z,12.8
2023-03-29T04:47:38.521Z,12.8
2023-03-29T04:48:40.601Z,12.7
2023-03-29T04:49:42.525Z,12.7
2023-03-29T04:50:44.461Z,12.7
2023-03-29T04:51:46.332Z,12.7
2023-03-29T04:52:48.177Z,12.7
2023-03-29T04:53:50.026Z,12.6
2023-03-29T04:54:51.896Z,12.5
2023-03-29T04:55:53.826Z,12.5
2023-03-29T04:56:55.798Z,12.5
2023-03-29T04:57:57.725Z,12.5
2023-03-29T04:58:59.484Z,12.5
2023-03-29T05:00:01.447Z,12.5
2023-03-29T05:01:03.649Z,12.4
2023-03-29T05:02:06.066Z,12.4
2023-03-29T05:03:08.044Z,12.3
2023-03-29T05:04:12.928Z,12.4
2023-03-29T05:05:15.078Z,12.3
2023-03-29T05:06:17.038Z,12.3
2023-03-29T05:07:18.882Z,12.3
2023-03-29T05:08:20.642Z,12.2
2023-03-29T05:09:22.586Z,12.2
2023-03-29T05:10:24.546Z,12.1
2023-03-29T05:11:26.391Z,12.2
2023-03-29T05:12:28.230Z,12.1
2023-03-29T05:13:30.088Z,12.1
2023-03-29T05:14:31.942Z,12.1
2023-03-29T05:15:33.779Z,12
2023-03-29T05:16:35.581Z,12
2023-03-29T05:17:37.784Z,12
2023-03-29T05:18:39.844Z,11.9
2023-03-29T05:19:41.729Z,11.9
2023-03-29T05:20:43.756Z,11.9
2023-03-29T05:21:46.009Z,11.9
2023-03-29T05:22:47.856Z,11.9
2023-03-29T05:23:49.715Z,11.9
2023-03-29T05:24:51.561Z,11.9
2023-03-29T05:25:53.417Z,11.8
2023-03-29T05:26:55.267Z,11.8
2023-03-29T05:27:57.057Z,11.8
2023-03-29T05:28:58.923Z,11.8
2023-03-29T05:30:00.818Z,11.7
2023-03-29T05:31:03.124Z,11.8
2023-03-29T05:32:05.870Z,11.8
2023-03-29T05:33:07.889Z,11.8
2023-03-29T05:34:09.857Z,11.7
2023-03-29T05:35:11.724Z,11.6
2023-03-29T05:36:13.857Z,11.7
2023-03-29T05:37:15.751Z,11.6
2023-03-29T05:38:18.078Z,11.5
2023-03-29T05:39:20.233Z,11.5
2023-03-29T05:40:21.923Z,11.5
2023-03-29T05:41:23.721Z,11.5
2023-03-29T05:42:25.446Z,11.6
2023-03-29T05:43:27.422Z,11.6
2023-03-29T05:44:29.415Z,11.5
2023-03-29T05:45:31.550Z,11.5
2023-03-29T05:46:33.489Z,11.5
2023-03-29T05:47:35.376Z,11.6
2023-03-29T05:48:37.301Z,11.5
2023-03-29T05:49:39.044Z,11.6
2023-03-29T05:50:41.016Z,11.3
2023-03-29T05:51:44.799Z,11.4
2023-03-29T05:52:46.604Z,11.3
2023-03-29T05:53:48.594Z,11.4
2023-03-29T05:54:50.541Z,11.3
2023-03-29T05:55:52.389Z,11.4
2023-03-29T05:56:54.208Z,11.5
2023-03-29T05:57:56.195Z,11.5
2023-03-29T05:58:58.156Z,11.5
2023-03-29T06:00:00.098Z,11.5
2023-03-29T06:01:02.356Z,11.5
2023-03-29T06:02:05.216Z,11.5
2023-03-29T06:03:21.609Z,11.5
2023-03-29T06:04:24.431Z,11.5
2023-03-29T06:05:26.757Z,11.4
2023-03-29T06:06:28.643Z,11.4
2023-03-29T06:07:30.560Z,11.3
2023-03-29T06:08:32.410Z,11.2
2023-03-29T06:09:34.362Z,11.3
2023-03-29T06:10:36.327Z,11.2
2023-03-29T06:11:38.390Z,11.3
2023-03-29T06:12:40.234Z,11.2
2023-03-29T06:13:42.072Z,11.3
2023-03-29T06:14:43.918Z,11.2
2023-03-29T06:15:45.766Z,11.2
2023-03-29T06:16:47.761Z,11.3
2023-03-29T06:17:49.738Z,11.3
2023-03-29T06:18:51.824Z,11.3
2023-03-29T06:19:53.788Z,11.2
2023-03-29T06:20:55.527Z,11.3
2023-03-29T06:21:57.410Z,11.3
2023-03-29T06:22:59.233Z,11.3
2023-03-29T06:24:01.190Z,11.2
2023-03-29T06:25:03.643Z,11.2
2023-03-29T06:26:05.365Z,11.3
2023-03-29T06:27:07.239Z,11.4
2023-03-29T06:28:09.108Z,11.5
2023-03-29T06:29:11.046Z,11.4
2023-03-29T06:30:12.999Z,11.4
2023-03-29T06:31:15.013Z,11.6
2023-03-29T06:32:16.899Z,11.5
2023-03-29T06:33:18.923Z,11.6
2023-03-29T06:34:20.956Z,11.6
2023-03-29T06:35:23.112Z,11.6
2023-03-29T06:36:24.917Z,11.7
2023-03-29T06:37:27.000Z,11.8
2023-03-29T06:38:29.020Z,11.8
2023-03-29T06:39:30.749Z,11.8
2023-03-29T06:40:32.639Z,11.7
2023-03-29T06:41:34.785Z,11.7
2023-03-29T06:42:36.528Z,11.7
2023-03-29T06:43:38.286Z,11.7
2023-03-29T06:44:40.130Z,11.7
2023-03-29T06:45:41.991Z,11.6
2023-03-29T06:46:43.936Z,11.8
2023-03-29T06:47:46.283Z,11.7
2023-03-29T06:48:48.458Z,11.7
2023-03-29T06:49:50.416Z,11.7
2023-03-29T06:50:52.258Z,11.6
2023-03-29T06:51:54.226Z,11.7
2023-03-29T06:52:56.182Z,11.7
2023-03-29T06:53:57.909Z,11.7
2023-03-29T06:54:59.752Z,11.6
2023-03-29T06:56:01.628Z,11.7
2023-03-29T06:57:03.384Z,11.5
2023-03-29T06:58:05.202Z,11.6
2023-03-29T06:59:07.069Z,11.7
2023-03-29T07:00:08.948Z,11.7
2023-03-29T07:01:11.333Z,11.6
2023-03-29T07:02:13.508Z,11.8
2023-03-29T07:03:15.502Z,11.6
2023-03-29T07:04:17.651Z,11.5
2023-03-29T07:05:19.943Z,11.4
2023-03-29T07:06:21.952Z,11.5
2023-03-29T07:07:23.691Z,11.5
2023-03-29T07:08:25.584Z,11.6
2023-03-29T07:09:27.410Z,11.6
2023-03-29T07:10:29.340Z,11.6
2023-03-29T07:11:31.040Z,11.4
2023-03-29T07:12:32.832Z,11.2
2023-03-29T07:13:34.921Z,11.5
2023-03-29T07:14:36.955Z,11.5
2023-03-29T07:15:38.750Z,11.5
2023-03-29T07:16:40.871Z,11.5
2023-03-29T07:17:43.140Z,11.5
2023-03-29T07:18:45.088Z,11.5
2023-03-29T07:19:47.138Z,11.4
2023-03-29T07:20:48.868Z,11.4
2023-03-29T07:21:51.135Z,11.2
2023-03-29T07:22:52.885Z,11.4
2023-03-29T07:23:54.657Z,11.3
2023-03-29T07:24:56.697Z,11.3
2023-03-29T07:25:58.575Z,11.3
2023-03-29T07:27:04.986Z,11.3
2023-03-29T07:28:06.949Z,11.4
2023-03-29T07:29:08.690Z,11.4
2023-03-29T07:30:10.539Z,11.3
2023-03-29T07:31:12.999Z,11.4
2023-03-29T07:32:15.174Z,11.3
2023-03-29T07:33:17.393Z,11.3
2023-03-29T07:34:19.473Z,11.4
2023-03-29T07:35:21.278Z,11.3
2023-03-29T07:36:23.300Z,11.4
2023-03-29T07:37:25.198Z,11.3
2023-03-29T07:38:27.189Z,11.3
2023-03-29T07:39:29.047Z,11.3
2023-03-29T07:40:31.098Z,11.2
2023-03-29T07:41:33.040Z,11.4
2023-03-29T07:42:34.889Z,11.3
2023-03-29T07:43:36.740Z,11.3
2023-03-29T07:44:39.027Z,11.3
2023-03-29T07:45:41.113Z,11.2
2023-03-29T07:46:43.327Z,11.2
2023-03-29T07:47:45.505Z,11.3
2023-03-29T07:48:47.637Z,11.3
2023-03-29T07:49:49.613Z,11.4
2023-03-29T07:50:51.936Z,11.4
2023-03-29T07:51:54.127Z,11.3
2023-03-29T07:52:55.956Z,11.3
2023-03-29T07:53:58.006Z,11.3
2023-03-29T07:54:59.846Z,11.3
2023-03-29T07:56:01.722Z,11.3
2023-03-29T07:57:03.601Z,11.2
2023-03-29T07:58:05.574Z,11.2
2023-03-29T07:59:07.253Z,11.1
2023-03-29T08:00:09.095Z,11.1
2023-03-29T08:01:15.871Z,11.1
2023-03-29T08:02:21.477Z,11.2
2023-03-29T08:03:23.420Z,11.2
2023-03-29T08:04:25.741Z,11.2
2023-03-29T08:05:41.891Z,11.2
2023-03-29T08:06:44.176Z,11.2
2023-03-29T08:07:46.089Z,11.1
2023-03-29T08:08:47.866Z,11.1
2023-03-29T08:09:49.892Z,11.1
2023-03-29T08:10:51.915Z,11.1
2023-03-29T08:11:53.906Z,11.1
2023-03-29T08:12:55.855Z,11.1
2023-03-29T08:13:57.598Z,11
2023-03-29T08:14:59.593Z,11
2023-03-29T08:16:01.334Z,11.1
2023-03-29T08:17:03.263Z,11.1
2023-03-29T08:18:05.531Z,11.2
2023-03-29T08:19:07.498Z,11.2
2023-03-29T08:20:09.467Z,11
2023-03-29T08:21:11.321Z,11.1
2023-03-29T08:22:13.367Z,11
2023-03-29T08:23:15.307Z,11
2023-03-29T08:24:21.051Z,11.1
2023-03-29T08:25:23.001Z,11
2023-03-29T08:26:24.955Z,11.1
2023-03-29T08:27:26.915Z,11
2023-03-29T08:28:28.748Z,11.1
2023-03-29T08:29:30.500Z,11.1
2023-03-29T08:30:32.350Z,11
2023-03-29T08:31:34.377Z,11.1
2023-03-29T08:32:36.749Z,11.1
2023-03-29T08:33:38.723Z,11.1
2023-03-29T08:34:40.589Z,11.1
2023-03-29T08:35:42.545Z,11.1
2023-03-29T08:36:44.586Z,11.1
2023-03-29T08:37:46.541Z,11.2
2023-03-29T08:38:48.391Z,11.1
2023-03-29T08:39:50.134Z,11.1
2023-03-29T08:40:51.977Z,11.2
2023-03-29T08:41:53.763Z,11.2
2023-03-29T08:42:55.577Z,11.1
2023-03-29T08:43:57.360Z,11.1
2023-03-29T08:44:59.181Z,11
2023-03-29T08:46:01.157Z,11.2
2023-03-29T08:47:03.471Z,11.1
2023-03-29T08:48:05.587Z,11
2023-03-29T08:49:07.574Z,11.3
2023-03-29T08:50:09.448Z,11.1
2023-03-29T08:51:11.393Z,11.2
2023-03-29T08:52:13.357Z,11.2
2023-03-29T08:53:15.259Z,11.1
2023-03-29T08:54:17.181Z,11.2
2023-03-29T08:55:18.906Z,10.8
2023-03-29T08:56:20.764Z,11
2023-03-29T08:57:22.799Z,11
2023-03-29T08:58:24.870Z,11.1
2023-03-29T08:59:26.681Z,11.1
2023-03-29T09:00:28.557Z,11.1
2023-03-29T09:01:30.393Z,11.2
2023-03-29T09:02:32.464Z,11.1
2023-03-29T09:03:34.735Z,11
2023-03-29T09:04:36.895Z,11.1
2023-03-29T09:05:38.840Z,11.1
2023-03-29T09:06:40.799Z,11.1
2023-03-29T09:07:42.632Z,11.1
2023-03-29T09:08:44.395Z,11.1
2023-03-29T09:09:46.239Z,11.1
2023-03-29T09:10:48.190Z,11
2023-03-29T09:11:49.942Z,11
2023-03-29T09:12:52.205Z,10.9
2023-03-29T09:13:54.263Z,11
2023-03-29T09:14:56.009Z,10.9
2023-03-29T09:15:58.018Z,11
2023-03-29T09:16:59.966Z,10.9
2023-03-29T09:18:01.804Z,10.8
2023-03-29T09:19:03.814Z,10.8
2023-03-29T09:20:05.720Z,10.9
2023-03-29T09:21:08.044Z,10.9
2023-03-29T09:22:09.806Z,10.8
2023-03-29T09:23:11.612Z,10.9
2023-03-29T09:24:13.482Z,10.9
2023-03-29T09:25:15.236Z,11
2023-03-29T09:26:17.009Z,10.8
2023-03-29T09:27:18.816Z,10.9
2023-03-29T09:28:20.781Z,10.9
2023-03-29T09:29:22.820Z,11
2023-03-29T09:30:24.618Z,11
2023-03-29T09:31:26.383Z,10.9
2023-03-29T09:32:28.564Z,11
2023-03-29T09:33:30.440Z,10.9
2023-03-29T09:34:32.377Z,11
2023-03-29T09:35:34.233Z,10.9
2023-03-29T09:36:36.186Z,11
2023-03-29T09:37:38.046Z,10.8
2023-03-29T09:38:39.998Z,10.8
2023-03-29T09:39:41.783Z,10.8
2023-03-29T09:40:43.586Z,10.7
2023-03-29T09:41:45.416Z,10.8
2023-03-29T09:42:47.385Z,10.9
2023-03-29T09:43:49.268Z,10.7
2023-03-29T09:44:51.076Z,10.8
2023-03-29T09:45:53.054Z,11.1
2023-03-29T09:46:55.095Z,10.7
2023-03-29T09:47:57.099Z,10.9
2023-03-29T09:48:59.401Z,10.8
2023-03-29T09:50:01.234Z,10.7
2023-03-29T09:51:03.724Z,10.7
2023-03-29T09:52:06.620Z,10.8
2023-03-29T09:53:08.435Z,10.8
2023-03-29T09:54:10.302Z,10.7
2023-03-29T09:55:12.318Z,10.8
2023-03-29T09:56:14.814Z,10.8
2023-03-29T09:57:16.781Z,10.8
2023-03-29T09:58:18.717Z,10.8
2023-03-29T09:59:20.580Z,10.8
2023-03-29T10:00:22.740Z,10.8
2023-03-29T10:01:24.698Z,10.8
2023-03-29T10:02:27.484Z,10.8
2023-03-29T10:03:29.523Z,10.7
2023-03-29T10:04:31.471Z,10.7
2023-03-29T10:05:33.381Z,10.7
2023-03-29T10:06:35.249Z,10.8
2023-03-29T10:07:37.006Z,10.6
2023-03-29T10:08:38.879Z,10.7
2023-03-29T10:09:40.851Z,10.7
2023-03-29T10:10:43.979Z,10.6
2023-03-29T10:11:45.780Z,11
2023-03-29T10:12:47.586Z,11.2
2023-03-29T10:13:49.338Z,11.2
2023-03-29T10:14:54.178Z,11.3
2023-03-29T10:15:56.205Z,11.3
2023-03-29T10:16:58.194Z,11.1
2023-03-29T10:18:00.375Z,11.1
2023-03-29T10:19:02.378Z,11.1
2023-03-29T10:20:04.859Z,11
2023-03-29T10:21:10.479Z,11
2023-03-29T10:22:12.443Z,11.1
2023-03-29T10:23:14.372Z,11.1
2023-03-29T10:24:16.033Z,11
2023-03-29T10:25:17.979Z,11.2
2023-03-29T10:26:19.839Z,11.1
2023-03-29T10:27:21.684Z,11
2023-03-29T10:28:23.543Z,11.1
2023-03-29T10:29:25.412Z,11.2
2023-03-29T10:30:27.236Z,11.2
2023-03-29T10:31:29.201Z,11.2
2023-03-29T10:32:31.452Z,11.2
2023-03-29T10:33:33.476Z,11.3
2023-03-29T10:34:35.453Z,11.2
2023-03-29T10:35:37.334Z,11.2
2023-03-29T10:36:39.247Z,11.2
2023-03-29T10:37:41.199Z,11.2
2023-03-29T10:38:43.177Z,11.1
2023-03-29T10:39:44.991Z,11
2023-03-29T10:40:47.000Z,11
2023-03-29T10:41:49.192Z,11.1
2023-03-29T10:42:50.867Z,11.1
2023-03-29T10:43:52.833Z,11.2
2023-03-29T10:44:54.672Z,11
2023-03-29T10:45:56.761Z,11
2023-03-29T10:46:58.904Z,10.9
2023-03-29T10:48:00.874Z,10.9
2023-03-29T10:49:02.892Z,11
2023-03-29T10:50:04.748Z,11.1
2023-03-29T10:51:06.527Z,11.1
2023-03-29T10:52:08.744Z,11.1
2023-03-29T10:53:10.692Z,11
2023-03-29T10:54:12.547Z,11.1
2023-03-29T10:55:14.416Z,11.1
2023-03-29T10:56:16.262Z,11.1
2023-03-29T10:57:18.754Z,11
2023-03-29T10:58:24.555Z,11.1
2023-03-29T10:59:26.401Z,11.1
2023-03-29T11:00:28.355Z,11
2023-03-29T11:01:30.865Z,10.8
2023-03-29T11:02:33.395Z,10.8
2023-03-29T11:03:35.951Z,11
2023-03-29T11:04:37.900Z,11
2023-03-29T11:05:39.671Z,10.8
2023-03-29T11:06:41.500Z,10.8
2023-03-29T11:07:43.359Z,11
2023-03-29T11:08:45.208Z,10.9
2023-03-29T11:09:46.950Z,11.1
2023-03-29T11:10:48.920Z,10.9
2023-03-29T11:12:04.630Z,11
2023-03-29T11:13:18.194Z,10.9
2023-03-29T11:14:19.959Z,11
2023-03-29T11:15:21.831Z,10.9
2023-03-29T11:16:23.730Z,10.9
2023-03-29T11:17:25.861Z,10.8
2023-03-29T11:18:27.772Z,10.9
2023-03-29T11:19:29.619Z,10.9
2023-03-29T11:20:31.461Z,10.9
2023-03-29T11:21:33.436Z,10.9
2023-03-29T11:22:35.262Z,10.9
2023-03-29T11:23:37.222Z,10.7
2023-03-29T11:24:39.171Z,10.8
2023-03-29T11:25:40.921Z,10.8
2023-03-29T11:26:42.875Z,10.7
2023-03-29T11:27:44.611Z,10.6
2023-03-29T11:28:49.283Z,10.7
2023-03-29T11:29:51.181Z,10.7
2023-03-29T11:30:53.086Z,10.7
2023-03-29T11:31:55.124Z,10.7
2023-03-29T11:32:57.383Z,10.6
2023-03-29T11:33:59.657Z,10.5
2023-03-29T11:35:01.764Z,10.7
2023-03-29T11:36:03.622Z,10.6
2023-03-29T11:37:05.459Z,10.6
2023-03-29T11:38:07.316Z,10.6
2023-03-29T11:39:09.261Z,10.6
2023-03-29T11:40:11.194Z,10.6
2023-03-29T11:41:13.385Z,10.6
2023-03-29T11:42:15.090Z,10.5
2023-03-29T11:43:16.946Z,10.6
2023-03-29T11:44:18.822Z,10.5
2023-03-29T11:45:20.574Z,10.6
2023-03-29T11:46:22.552Z,10.5
2023-03-29T11:47:24.484Z,10.6
2023-03-29T11:48:26.462Z,10.6
2023-03-29T11:49:28.478Z,10.5
2023-03-29T11:50:30.445Z,10.6
2023-03-29T11:51:32.383Z,10.5
2023-03-29T11:52:34.242Z,10.6
2023-03-29T11:53:36.094Z,10.5
2023-03-29T11:54:37.838Z,10.3
2023-03-29T11:55:39.790Z,10.5
2023-03-29T11:56:41.654Z,10.4
2023-03-29T11:57:43.479Z,10.4
2023-03-29T11:58:45.332Z,10.4
2023-03-29T11:59:47.072Z,10.3
2023-03-29T12:00:48.828Z,10.4
2023-03-29T12:01:50.843Z,10.2
2023-03-29T12:02:52.916Z,10.3
2023-03-29T12:03:55.428Z,10.2
2023-03-29T12:04:57.690Z,10.3
2023-03-29T12:05:59.509Z,10.2
2023-03-29T12:07:01.703Z,10.2
2023-03-29T12:08:03.761Z,10.2
2023-03-29T12:09:05.688Z,10.2
2023-03-29T12:10:07.638Z,10.3
2023-03-29T12:11:09.593Z,10.3
2023-03-29T12:12:11.434Z,10.3
2023-03-29T12:13:13.191Z,10.3
2023-03-29T12:14:15.040Z,10.2
2023-03-29T12:15:16.895Z,10.3
2023-03-29T12:16:18.855Z,10.3
2023-03-29T12:17:20.682Z,10.3
2023-03-29T12:18:22.547Z,10.3
2023-03-29T12:19:24.416Z,10.3
2023-03-29T12:20:26.436Z,10.3
2023-03-29T12:21:28.396Z,10.4
2023-03-29T12:22:30.236Z,10.2
2023-03-29T12:23:32.091Z,10.2
2023-03-29T12:24:33.944Z,10.2
2023-03-29T12:25:35.788Z,10.2
2023-03-29T12:26:37.599Z,10.1
2023-03-29T12:27:39.383Z,10.2
2023-03-29T12:28:41.361Z,10.2
2023-03-29T12:29:43.306Z,10.1
2023-03-29T12:30:45.092Z,10.1
2023-03-29T12:31:46.936Z,10.1
2023-03-29T12:32:48.765Z,10.1
2023-03-29T12:33:50.611Z,10
2023-03-29T12:34:52.565Z,9.9
2023-03-29T12:35:54.548Z,9.9
2023-03-29T12:36:56.559Z,9.9
2023-03-29T12:37:58.515Z,9.8
2023-03-29T12:39:00.386Z,9.8
2023-03-29T12:40:02.314Z,9.9
2023-03-29T12:41:04.658Z,9.9
2023-03-29T12:42:07.611Z,9.9
2023-03-29T12:43:10.060Z,9.9
2023-03-29T12:44:12.095Z,9.9
2023-03-29T12:45:13.929Z,9.8
2023-03-29T12:46:15.926Z,10
2023-03-29T12:47:18.134Z,9.8
2023-03-29T12:48:19.973Z,9.8
2023-03-29T12:49:21.733Z,9.9
2023-03-29T12:50:23.956Z,9.8
2023-03-29T12:51:25.847Z,9.9
2023-03-29T12:52:27.793Z,9.8
2023-03-29T12:53:29.656Z,9.7
2023-03-29T12:54:31.597Z,9.9
2023-03-29T12:55:33.453Z,9.8
2023-03-29T12:56:35.289Z,9.8
2023-03-29T12:57:37.144Z,9.7
2023-03-29T12:58:39.106Z,9.6
2023-03-29T12:59:41.245Z,9.7
2023-03-29T13:00:43.222Z,9.8
2023-03-29T13:01:45.416Z,9.8
2023-03-29T13:02:47.796Z,9.8
2023-03-29T13:03:49.792Z,9.6
2023-03-29T13:04:51.778Z,9.6
2023-03-29T13:05:53.775Z,9.6
2023-03-29T13:06:55.837Z,9.6
2023-03-29T13:07:57.685Z,9.7
2023-03-29T13:08:59.451Z,9.7
2023-03-29T13:10:01.196Z,9.7
2023-03-29T13:11:03.144Z,9.6
2023-03-29T13:12:04.984Z,9.6
2023-03-29T13:13:06.744Z,9.7
2023-03-29T13:14:08.596Z,9.6
2023-03-29T13:15:10.332Z,9.6
2023-03-29T13:16:12.541Z,9.7
2023-03-29T13:17:19.394Z,9.6
2023-03-29T13:18:21.311Z,9.6
2023-03-29T13:19:23.261Z,9.6
2023-03-29T13:20:25.110Z,9.7
2023-03-29T13:21:27.105Z,9.7
2023-03-29T13:22:28.911Z,9.6
2023-03-29T13:23:30.771Z,9.6
2023-03-29T13:24:32.512Z,9.7
2023-03-29T13:25:34.360Z,9.6
2023-03-29T13:26:36.315Z,9.6
2023-03-29T13:27:38.173Z,9.5
2023-03-29T13:28:40.039Z,9.5
2023-03-29T13:29:41.966Z,9.6
2023-03-29T13:30:43.722Z,9.6
2023-03-29T13:31:45.800Z,9.6
2023-03-29T13:32:47.793Z,9.6
2023-03-29T13:33:50.023Z,9.5
2023-03-29T13:34:52.144Z,9.6
2023-03-29T13:35:54.111Z,9.5
2023-03-29T13:36:56.181Z,9.5
2023-03-29T13:37:58.097Z,9.6
2023-03-29T13:39:00.057Z,9.6
2023-03-29T13:40:02.010Z,9.6
2023-03-29T13:41:03.864Z,9.6
2023-03-29T13:42:05.596Z,9.7
2023-03-29T13:43:07.451Z,9.6
2023-03-29T13:44:09.312Z,9.6
2023-03-29T13:45:11.057Z,9.6
2023-03-29T13:46:13.008Z,9.6
2023-03-29T13:47:14.956Z,9.5
2023-03-29T13:48:16.847Z,9.6
2023-03-29T13:49:18.969Z,9.5
2023-03-29T13:50:20.935Z,9.5
2023-03-29T13:51:22.613Z,9.5
2023-03-29T13:52:24.493Z,9.4
2023-03-29T13:53:26.462Z,9.5